首页
METAR-TAF:

METAR-TAF

机场 :

路克空軍基地

格蘭岱爾, 亞利桑那州, 美国

纬度: 33-32N, 经度: 112-23W, 海拔: 332米

当前天气观测

该预报发布于31分钟前的22:55 UTC
风速14节,风向南转西南,有时为18节阵风
温度 44°C
湿度 5%
气压 1003 hPa
能見度: 16.1公里
天空无云

METAR: KLUF 152255Z AUTO 20014G18KT 10SM CLR 44/M04 A2962 RMK AO2 SLP012 T04381042 $

时间: 16:26 (23:26 UTC)

预报

该预报发布于27小时和26分钟前的20:00 UTC
预报有效从14日的 20点(UTC)到 16日的 02点(UTC)
风速6节,风向多变
能见度10公里或以上
少量云层高于17000英尺
成为
从 14日的 21点(UTC)到 14日的 22点(UTC)
风速6节,风向多变,有时为15节阵风
能見度: 1504
少量云层高于17000英尺
成为
从 15日的 21点(UTC)到 15日的 22点(UTC)
风速12节,风向南转西南
能見度: 1712
天空无云

TAF: KLUF 142000Z 1420/1602 VRB06KT 9999 FEW170 QNH2979INS BECMG 1421/1422 21010G15KT 9999 FEW170 QNH2974INS WND VRB06KT AFT 1504 BECMG 1521/1522 21012KT 9999 SKC QNH2960INS TX44/1423Z TN26/1513Z LAST NO AMDS AFT 1423 NEXT 1712

超过4000个机场的气象观测和天气预报(METAR&TAF报告)。

可查询的气象台以黄色和红色小点在地图上表示。

将鼠标移到小点上方,可查看气象台名称。

然后点击查看天气观测和预报。

如需切换地图:点击带黑十字的绿色按钮放大地图;点击带横线的绿色按钮缩小地图;或者点击绿色箭头查看邻近地区的地图。


METAR-TAF: